Strona główna
METAR-TAF:

METAR-TAF

Lotnisko :

Port lotniczy Londyn-Oksford

Oksford, Anglia

Szerokość geograficzna: 51-50-13N, Długość geograficzna: 1-19-12W, wysokość: 82 m

Aktualna obserwacja pogody

Raport powstał 31 minut temu, godzina 11:20 UTC
Wiatr 4 kt od południowo-południowy zachód
Temperatura 6°C
Wilgotność 93%
Ciśnienie 1000 hPa
Widzialność 10 km lub więcej
Brak chmur poniżej 1500 m i brak chmur cumulonimbus

METAR: EGTK 161120Z 20004KT CAVOK 06/05 Q1000

czas: 11:51 (11:51 UTC)

Prognoza

Raport powstał 52 minut temu, godzina 10:59 UTC
Prognoza ważna od 16 godzina 12 UTC do 16 godzina 21 UTC
Wiatr 5 kt od południe
Widzialność 10 km lub więcej
Mało chmury na wysokości 4000 ft
Prawdopodobieństwo 40% :
Przejściowo
od 16 godzina 17 UTC do 16 godzina 21 UTC
Widzialność: 5000 m
zmętnienie

TAF: EGTK 161059Z 1612/1621 18005KT 9999 FEW040 PROB40 TEMPO 1617/1621 5000 HZ

Obserwacja i prognoza pogody dla ponad 4000 lotnisk (raport METAR i TAF).

Dostępne stacje oznaczono żółtymi i czerwonymi punktami na mapie.

Najedź kursorem aby zobaczyć nazwę stacji.

Kliknij aby zobaczyć obserwacje i prognozy pogody.

Aby zmienić mapę: kliknij na zielony przycisk z czarnym krzyżykiem, aby powiększyć; na zielony przycisk z myślnikiem, aby pomniejszyć; na zielone strzałki, aby przejść do map sąsiednich.


METAR-TAF: